Armington, Montana
Current Conditions -  °F | °C
As of 8:56 PM on Thursday 27 Nov 2014 (Local Time) from KGFA Reporting Station
Clear Clear  
Wind Chill:   Ceiling: Unl
Heat Index:   Visibility: 10mi
Dew Point:   Wind: 16mph
Humidity: 66%   Direction: 220°SW
Pressure: 29.7"   Gusts: NA
Location:  47.3298°N, 110.893°W
Report Text: KGFA 280356Z AUTO 22014KT 10SM CLR 08/02 A2970 RMK AO2 SLP074 T00830022
Loading
Personal Weather Stations






























Interactive Weather Map New forecast layout! Learn more

10-Day Weather Forecast

Advertisements
Track Severe Weather on mobile